Time;durP1;ratioP1;P1;durP2;ratioP2;P2;SDS_P1;SDS_P2;PMS_P1;PMS_P2;Temp;Humidity;BMP_temperature;BMP_pressure;BME280_temperature;BME280_humidity;BME280_pressure;Samples;Min_cycle;Max_cycle;Signal;HPM_P1;HPM_P2
2022/04/03 00:01:46;;;;;;;1.20;0.90;;;;;;;0.73;69.90;101366.94;6215025;23;20020;-71
2022/04/03 00:04:12;;;;;;;0.95;0.88;;;;;;;0.60;70.16;101354.03;6187496;23;20040;-71
2022/04/03 00:06:38;;;;;;;5.57;1.00;;;;;;;0.63;69.79;101363.63;6216005;23;20003;-71
2022/04/03 00:09:03;;;;;;;2.53;1.40;;;;;;;0.60;70.17;101367.50;6242268;23;20008;-71
2022/04/03 00:11:29;;;;;;;1.48;0.75;;;;;;;0.66;69.82;101379.41;6166501;23;20015;-72
2022/04/03 00:13:56;;;;;;;1.23;1.00;;;;;;;0.63;70.83;101372.53;6253047;23;20012;-70
2022/04/03 00:16:21;;;;;;;0.98;0.80;;;;;;;0.51;70.21;101361.31;6255180;23;20019;-71
2022/04/03 00:18:47;;;;;;;0.73;0.70;;;;;;;0.59;70.83;101375.75;6227819;23;20007;-71
2022/04/03 00:21:16;;;;;;;2.53;0.98;;;;;;;0.60;69.88;101375.56;6219756;23;20015;-71
2022/04/03 00:23:42;;;;;;;2.30;0.98;;;;;;;0.59;69.83;101381.13;6243473;23;20601;-71
2022/04/03 00:26:07;;;;;;;1.60;0.93;;;;;;;0.58;70.17;101384.84;6244475;23;20000;-71
2022/04/03 00:28:33;;;;;;;3.03;0.80;;;;;;;0.54;70.30;101372.75;6210975;23;20308;-71
2022/04/03 00:30:59;;;;;;;1.23;0.88;;;;;;;0.49;70.77;101367.91;6213905;23;20372;-71
2022/04/03 00:33:25;;;;;;;1.38;0.95;;;;;;;0.51;71.08;101376.63;6243605;23;20059;-70
2022/04/03 00:35:50;;;;;;;1.48;0.90;;;;;;;0.44;70.45;101381.03;6213002;23;20412;-72
2022/04/03 00:38:16;;;;;;;0.98;0.88;;;;;;;0.46;70.68;101393.31;6240173;23;20008;-70
2022/04/03 00:40:46;;;;;;;1.98;1.40;;;;;;;0.40;71.65;101387.78;6215582;23;20073;-72
2022/04/03 00:43:11;;;;;;;1.83;1.10;;;;;;;0.40;71.76;101394.00;6244354;23;20011;-72
2022/04/03 00:45:43;;;;;;;3.55;1.70;;;;;;;0.38;71.08;101398.75;6218352;23;19996;-72
2022/04/03 00:48:10;;;;;;;1.73;1.20;;;;;;;0.33;71.41;101391.16;6244150;23;20450;-71
2022/04/03 00:50:35;;;;;;;1.60;1.10;;;;;;;0.28;71.84;101396.25;6215807;23;20019;-72
2022/04/03 00:53:01;;;;;;;3.50;1.58;;;;;;;0.25;71.08;101395.75;6241206;23;20075;-72
2022/04/03 00:55:26;;;;;;;1.55;1.10;;;;;;;0.15;71.87;101396.78;6198798;23;20012;-72
2022/04/03 00:57:52;;;;;;;1.80;1.45;;;;;;;0.15;71.41;101391.41;6192839;23;20088;-71
2022/04/03 01:00:17;;;;;;;2.55;1.42;;;;;;;0.04;71.73;101374.81;6242174;23;20101;-72
2022/04/03 01:02:43;;;;;;;2.20;1.17;;;;;;;0.09;71.67;101392.09;6215801;23;20008;-71
2022/04/03 01:05:09;;;;;;;1.50;1.08;;;;;;;0.06;72.49;101392.47;6242057;23;20062;-71
2022/04/03 01:07:34;;;;;;;1.63;1.20;;;;;;;0.03;71.68;101387.44;6210141;23;20391;-71
2022/04/03 01:10:01;;;;;;;1.80;1.17;;;;;;;0.03;72.07;101386.56;6240079;23;20014;-71
2022/04/03 01:12:26;;;;;;;1.98;1.30;;;;;;;-0.04;71.74;101386.44;6213757;23;20095;-72
2022/04/03 01:14:52;;;;;;;5.72;1.30;;;;;;;-0.09;72.07;101383.41;6211238;23;20423;-73
2022/04/03 01:17:17;;;;;;;1.95;1.10;;;;;;;-0.04;72.63;101392.66;6214070;23;20499;-72
2022/04/03 01:19:43;;;;;;;2.13;1.48;;;;;;;-0.09;72.45;101386.97;6237761;23;20027;-73
2022/04/03 01:22:09;;;;;;;1.60;1.20;;;;;;;-0.14;72.64;101385.78;6183143;23;20367;-73
2022/04/03 01:24:35;;;;;;;1.52;1.00;;;;;;;-0.09;72.11;101391.47;6240781;23;20000;-74
2022/04/03 01:27:01;;;;;;;4.15;1.30;;;;;;;-0.08;72.09;101395.84;6210107;23;20074;-74
2022/04/03 01:29:27;;;;;;;2.85;1.38;;;;;;;-0.14;72.86;101383.09;6186077;23;20611;-73
2022/04/03 01:31:53;;;;;;;3.50;1.05;;;;;;;-0.13;72.43;101387.44;6209557;23;20061;-74
2022/04/03 01:34:19;;;;;;;2.80;1.45;;;;;;;-0.21;72.92;101383.78;6212038;23;20008;-73
2022/04/03 01:36:46;;;;;;;1.25;0.95;;;;;;;-0.16;73.07;101387.81;6239563;23;20008;-72
2022/04/03 01:39:12;;;;;;;1.65;1.15;;;;;;;-0.19;72.96;101383.59;6184404;23;20095;-73
2022/04/03 01:41:39;;;;;;;3.20;1.50;;;;;;;-0.19;73.09;101389.84;6213568;23;20011;-73
2022/04/03 01:44:11;;;;;;;3.08;1.27;;;;;;;-0.16;73.35;101391.34;6240316;23;20605;-73
2022/04/03 01:46:38;;;;;;;1.70;1.42;;;;;;;-0.20;73.47;101388.16;6212823;23;20000;-72
2022/04/03 01:49:07;;;;;;;2.63;1.60;;;;;;;-0.23;72.65;101390.34;6238821;23;20034;-72
2022/04/03 01:51:33;;;;;;;1.75;1.30;;;;;;;-0.26;72.86;101388.84;6235963;23;20031;-72
2022/04/03 01:54:02;;;;;;;3.42;1.40;;;;;;;-0.27;73.07;101384.47;6239821;23;20004;-71
2022/04/03 01:56:27;;;;;;;1.83;1.30;;;;;;;-0.31;73.25;101375.06;6213209;23;20000;-72
2022/04/03 01:58:53;;;;;;;1.27;1.00;;;;;;;-0.30;73.14;101384.81;6187977;23;20008;-72
2022/04/03 02:01:19;;;;;;;1.27;1.10;;;;;;;-0.33;72.83;101385.16;6238326;23;20028;-72
2022/04/03 02:03:46;;;;;;;2.58;1.20;;;;;;;-0.39;73.13;101378.59;6209714;23;20085;-72
2022/04/03 02:06:13;;;;;;;1.77;1.20;;;;;;;-0.38;72.83;101374.06;6238877;23;20008;-72
2022/04/03 02:08:39;;;;;;;3.85;1.35;;;;;;;-0.41;73.37;101374.41;6212186;23;20012;-72
2022/04/03 02:11:04;;;;;;;1.17;0.82;;;;;;;-0.43;73.05;101376.44;6238454;23;20031;-72
2022/04/03 02:13:30;;;;;;;1.60;0.93;;;;;;;-0.48;73.18;101376.09;6184747;23;20312;-72
2022/04/03 02:15:55;;;;;;;2.38;1.23;;;;;;;-0.43;72.81;101384.50;6239137;23;20079;-73
2022/04/03 02:18:21;;;;;;;2.22;1.20;;;;;;;-0.43;72.78;101381.81;6211571;23;20012;-72
2022/04/03 02:20:46;;;;;;;1.17;1.00;;;;;;;-0.48;72.84;101384.16;6212361;23;20016;-72
2022/04/03 02:23:12;;;;;;;2.28;1.30;;;;;;;-0.56;73.63;101377.78;6212800;23;20423;-72
2022/04/03 02:25:38;;;;;;;1.42;1.08;;;;;;;-0.55;73.67;101378.63;6211618;23;20004;-72
2022/04/03 02:28:04;;;;;;;2.58;1.20;;;;;;;-0.54;73.74;101377.59;6189129;23;20088;-72
2022/04/03 02:30:30;;;;;;;2.22;1.40;;;;;;;-0.58;73.92;101378.97;6239757;23;20015;-72
2022/04/03 02:32:55;;;;;;;2.08;1.20;;;;;;;-0.56;73.99;101383.16;6213592;23;20016;-72
2022/04/03 02:35:21;;;;;;;1.58;1.02;;;;;;;-0.60;73.34;101381.84;6214336;23;20042;-72
2022/04/03 02:37:46;;;;;;;1.40;1.10;;;;;;;-0.63;73.78;101384.84;6216205;23;20016;-72
2022/04/03 02:40:14;;;;;;;2.03;1.05;;;;;;;-0.61;73.67;101385.53;6205205;23;20008;-72
2022/04/03 02:42:40;;;;;;;1.35;0.93;;;;;;;-0.67;73.94;101391.56;6257821;23;20316;-72
2022/04/03 02:45:07;;;;;;;1.58;1.10;;;;;;;-0.72;73.69;101388.53;6206411;23;20047;-72
2022/04/03 02:47:33;;;;;;;1.33;1.13;;;;;;;-0.73;73.35;101390.41;6258887;23;20043;-74
2022/04/03 02:49:59;;;;;;;2.42;1.15;;;;;;;-0.76;73.88;101385.38;6228622;23;20151;-72
2022/04/03 02:52:25;;;;;;;4.53;1.60;;;;;;;-0.83;73.85;101388.88;6204292;23;20009;-77
2022/04/03 02:54:50;;;;;;;3.85;1.75;;;;;;;-0.99;74.08;101387.00;6258054;23;20008;-74
2022/04/03 02:57:16;;;;;;;3.03;1.95;;;;;;;-1.16;74.70;101387.00;6237621;23;20028;-74
2022/04/03 02:59:43;;;;;;;1.70;1.33;;;;;;;-1.24;74.70;101390.50;6239055;23;20431;-74
2022/04/03 03:02:10;;;;;;;1.90;1.20;;;;;;;-1.31;74.86;101384.13;6241896;23;20053;-73
2022/04/03 03:04:35;;;;;;;2.90;1.35;;;;;;;-1.40;74.01;101382.41;6241571;23;20047;-74
2022/04/03 03:07:02;;;;;;;2.28;1.42;;;;;;;-1.40;74.19;101385.09;6242855;23;20009;-74
2022/04/03 03:09:28;;;;;;;2.38;1.33;;;;;;;-1.33;74.53;101380.75;6211539;23;20000;-73
2022/04/03 03:11:53;;;;;;;2.83;1.60;;;;;;;-1.36;74.68;101378.38;6216623;23;20047;-74
2022/04/03 03:14:19;;;;;;;2.38;1.75;;;;;;;-1.30;74.78;101375.06;6211987;23;20488;-75
2022/04/03 03:16:44;;;;;;;1.95;1.20;;;;;;;-1.23;74.85;101376.09;6215487;23;20000;-73
2022/04/03 03:19:10;;;;;;;3.25;1.55;;;;;;;-1.20;75.31;101384.81;6216596;23;20012;-71
2022/04/03 03:21:36;;;;;;;1.70;1.27;;;;;;;-1.16;74.99;101391.53;6188976;23;20008;-71
2022/04/03 03:24:02;;;;;;;3.25;1.70;;;;;;;-1.15;75.23;101382.47;6213517;23;20083;-72
2022/04/03 03:26:27;;;;;;;3.00;1.70;;;;;;;-1.20;75.40;101374.06;6215476;23;20038;-72
2022/04/03 03:28:53;;;;;;;2.08;1.50;;;;;;;-1.26;75.46;101376.38;6242245;23;20095;-71
2022/04/03 03:31:19;;;;;;;2.10;1.75;;;;;;;-1.30;75.20;101379.56;6187567;23;20386;-75
2022/04/03 03:33:45;;;;;;;3.35;1.52;;;;;;;-1.37;75.01;101384.78;6215935;23;20422;-75
2022/04/03 03:36:11;;;;;;;3.15;1.95;;;;;;;-1.49;75.13;101378.00;6214573;23;20011;-75
2022/04/03 03:38:37;;;;;;;2.88;1.88;;;;;;;-1.53;75.72;101384.72;6217285;23;20015;-76
2022/04/03 03:41:03;;;;;;;3.30;2.35;;;;;;;-1.61;75.68;101383.72;6241717;23;20023;-75
2022/04/03 03:43:28;;;;;;;6.72;2.33;;;;;;;-1.71;75.95;101377.59;6190990;23;20036;-75
2022/04/03 03:45:54;;;;;;;4.93;2.25;;;;;;;-1.78;76.18;101376.59;6242281;23;20004;-74
2022/04/03 03:48:21;;;;;;;3.30;2.20;;;;;;;-1.78;76.70;101381.97;6186511;23;20422;-75
2022/04/03 03:50:47;;;;;;;9.95;2.17;;;;;;;-1.88;76.73;101368.66;6213783;23;20008;-75
2022/04/03 03:53:12;;;;;;;3.05;1.77;;;;;;;-1.87;76.86;101377.53;6240853;23;20441;-75
2022/04/03 03:55:38;;;;;;;2.97;1.52;;;;;;;-1.84;76.62;101382.59;6216514;23;20012;-75
2022/04/03 03:58:04;;;;;;;2.33;1.48;;;;;;;-1.89;76.80;101379.56;6215913;23;20043;-75
2022/04/03 04:00:29;;;;;;;1.08;0.95;;;;;;;-1.92;76.50;101379.88;6214807;23;20020;-75
2022/04/03 04:02:54;;;;;;;2.75;1.38;;;;;;;-1.89;76.35;101384.91;6216666;23;20008;-74
2022/04/03 04:05:20;;;;;;;6.18;2.25;;;;;;;-1.88;76.64;101378.53;6214548;23;20008;-73
2022/04/03 04:07:46;;;;;;;3.10;2.47;;;;;;;-1.88;76.93;101382.06;6238180;23;20012;-75
2022/04/03 04:10:13;;;;;;;4.55;2.40;;;;;;;-1.91;77.55;101382.41;6243213;23;20053;-74
2022/04/03 04:12:40;;;;;;;3.15;2.13;;;;;;;-2.01;77.85;101371.78;6240565;23;20066;-75
2022/04/03 04:15:07;;;;;;;3.20;2.17;;;;;;;-1.99;77.89;101388.53;6243650;23;20034;-75
2022/04/03 04:17:36;;;;;;;5.13;2.40;;;;;;;-2.03;77.80;101383.66;6244193;23;20000;-74
2022/04/03 04:20:06;;;;;;;2.70;2.10;;;;;;;-2.04;78.33;101388.19;6216597;23;20004;-74
2022/04/03 04:22:32;;;;;;;3.88;2.67;;;;;;;-2.06;78.50;101383.97;6214801;23;20062;-74
2022/04/03 04:24:58;;;;;;;3.42;2.05;;;;;;;-2.08;78.57;101378.78;6243425;23;20403;-76
2022/04/03 04:27:23;;;;;;;2.15;1.80;;;;;;;-2.10;78.24;101378.13;6240374;23;20092;-75
2022/04/03 04:29:49;;;;;;;3.63;2.25;;;;;;;-2.10;78.19;101372.75;6213532;23;20016;-74
2022/04/03 04:32:14;;;;;;;2.95;1.98;;;;;;;-2.05;78.43;101375.78;6189419;23;20088;-74
2022/04/03 04:34:39;;;;;;;2.92;1.92;;;;;;;-1.99;78.39;101375.13;6185143;23;20023;-75
2022/04/03 04:37:05;;;;;;;5.97;2.53;;;;;;;-1.94;78.24;101372.84;6189250;23;20012;-74
2022/04/03 04:39:31;;;;;;;4.28;2.53;;;;;;;-1.95;78.62;101376.50;6240077;23;20083;-74
2022/04/03 04:41:58;;;;;;;3.38;2.42;;;;;;;-1.96;78.82;101390.06;6209895;23;20099;-74
2022/04/03 04:44:24;;;;;;;4.88;3.03;;;;;;;-1.98;78.97;101392.09;6212838;23;20008;-74
2022/04/03 04:46:49;;;;;;;2.75;2.22;;;;;;;-2.04;79.14;101387.38;6238728;23;20019;-74
2022/04/03 04:49:16;;;;;;;3.13;2.00;;;;;;;-2.04;79.16;101382.84;6213194;23;20014;-74
2022/04/03 04:51:43;;;;;;;3.05;2.45;;;;;;;-2.03;79.17;101389.88;6187214;23;20015;-73
2022/04/03 04:54:09;;;;;;;4.75;2.65;;;;;;;-2.01;79.32;101403.97;6213671;23;20034;-74
2022/04/03 04:56:35;;;;;;;6.53;3.03;;;;;;;-2.02;79.92;101390.72;6241383;23;20017;-73
2022/04/03 04:59:02;;;;;;;5.07;2.40;;;;;;;-2.08;79.47;101386.81;6213558;23;20012;-74
2022/04/03 05:01:27;;;;;;;5.13;3.08;;;;;;;-2.13;79.11;101386.47;6212890;23;20055;-74
2022/04/03 05:03:53;;;;;;;4.65;2.95;;;;;;;-2.08;79.80;101402.91;6214866;23;20011;-75
2022/04/03 05:06:22;;;;;;;3.80;2.47;;;;;;;-2.12;80.32;101401.53;6238950;23;20000;-73
2022/04/03 05:08:48;;;;;;;3.40;2.75;;;;;;;-2.19;80.51;101398.66;6215838;23;20312;-74
2022/04/03 05:11:14;;;;;;;6.43;2.95;;;;;;;-2.17;80.00;101410.06;6241866;23;20012;-73
2022/04/03 05:13:40;;;;;;;5.22;3.28;;;;;;;-2.20;80.28;101410.38;6240579;23;20012;-73
2022/04/03 05:16:06;;;;;;;4.85;3.03;;;;;;;-2.21;80.31;101413.22;6186931;23;20019;-73
2022/04/03 05:18:34;;;;;;;4.65;2.70;;;;;;;-2.20;80.22;101409.56;6241835;23;20008;-75
2022/04/03 05:21:00;;;;;;;2.92;2.20;;;;;;;-2.19;80.32;101412.06;6208986;23;20019;-75
2022/04/03 05:23:25;;;;;;;3.00;2.08;;;;;;;-2.19;80.56;101408.53;6237267;23;20004;-74
2022/04/03 05:25:50;;;;;;;8.40;2.50;;;;;;;-2.14;80.09;101414.28;6212907;23;20004;-75
2022/04/03 05:28:16;;;;;;;4.78;2.65;;;;;;;-2.18;80.12;101415.56;6239568;23;20018;-75
2022/04/03 05:30:43;;;;;;;5.55;3.25;;;;;;;-2.23;79.98;101412.53;6237375;23;20030;-74
2022/04/03 05:33:09;;;;;;;4.53;3.13;;;;;;;-2.23;80.75;101409.84;6188009;23;20008;-75
2022/04/03 05:35:34;;;;;;;6.10;3.08;;;;;;;-2.22;80.66;101417.75;6213642;23;20448;-73
2022/04/03 05:38:00;;;;;;;6.57;3.22;;;;;;;-2.22;80.93;101427.59;6208416;23;20008;-73
2022/04/03 05:40:25;;;;;;;6.88;4.00;;;;;;;-2.25;81.28;101419.88;6210745;23;19996;-74
2022/04/03 05:42:51;;;;;;;11.75;3.42;;;;;;;-2.23;81.22;101421.41;6212891;23;20015;-73
2022/04/03 05:45:17;;;;;;;3.65;2.50;;;;;;;-2.24;81.01;101418.91;6211824;23;20015;-73
2022/04/03 05:47:43;;;;;;;3.75;2.30;;;;;;;-2.22;80.79;101438.31;6237062;23;20008;-74
2022/04/03 05:50:09;;;;;;;7.25;2.25;;;;;;;-2.20;80.72;101431.00;6212197;23;20064;-73
2022/04/03 05:52:46;;;;;;;8.52;2.88;;;;;;;-2.22;80.58;101427.59;6238407;23;20008;-73
2022/04/03 05:55:12;;;;;;;6.20;3.55;;;;;;;-2.16;80.51;101426.97;6211478;23;20008;-73
2022/04/03 05:57:37;;;;;;;7.07;3.67;;;;;;;-2.10;81.24;101437.09;6239393;23;20481;-73
2022/04/03 06:00:07;;;;;;;5.78;3.42;;;;;;;-2.08;80.81;101437.75;6240305;23;20028;-72
2022/04/03 06:02:45;;;;;;;5.13;3.35;;;;;;;-2.03;80.84;101439.97;6239618;23;20038;-73
2022/04/03 06:05:10;;;;;;;5.38;3.13;;;;;;;-2.01;80.90;101430.75;6240919;23;20039;-75
2022/04/03 06:07:36;;;;;;;3.85;2.83;;;;;;;-2.00;80.98;101440.50;6239381;23;20082;-75
2022/04/03 06:10:01;;;;;;;4.93;3.00;;;;;;;-1.93;80.65;101446.03;6214848;23;20008;-75
2022/04/03 06:12:27;;;;;;;4.25;2.63;;;;;;;-1.87;79.88;101447.25;6237651;23;20419;-74
2022/04/03 06:14:52;;;;;;;6.88;3.92;;;;;;;-1.82;80.24;101447.63;6242733;23;20007;-74
2022/04/03 06:17:17;;;;;;;4.13;2.83;;;;;;;-1.81;80.49;101441.25;6217089;23;20008;-77
2022/04/03 06:19:44;;;;;;;7.90;3.63;;;;;;;-1.74;80.27;101447.66;6188925;23;20151;-76
2022/04/03 06:22:13;;;;;;;3.50;2.85;;;;;;;-1.77;80.58;101434.56;6215711;23;20015;-75
2022/04/03 06:24:48;;;;;;;6.50;3.80;;;;;;;-1.71;80.30;101441.97;6215140;23;20225;-75
2022/04/03 06:27:14;;;;;;;8.60;3.65;;;;;;;-1.62;80.21;101457.13;6242770;23;19997;-75
2022/04/03 06:29:39;;;;;;;5.35;3.25;;;;;;;-1.55;80.13;101451.09;6216365;23;20016;-75
2022/04/03 06:32:04;;;;;;;6.90;3.15;;;;;;;-1.48;80.47;101452.16;6236586;23;20423;-74
2022/04/03 06:34:30;;;;;;;5.63;3.13;;;;;;;-1.42;80.08;101463.09;6206586;23;20004;-72
2022/04/03 06:36:55;;;;;;;4.68;2.80;;;;;;;-1.36;79.96;101456.19;6240157;23;20008;-72
2022/04/03 07:26:25;;;;;;;6.43;3.97;;;;;;;0.29;76.86;101464.34;6205859;22;20020;-75
2022/04/03 07:31:59;;;;;;;7.63;4.38;;;;;;;0.64;76.46;101491.81;6194181;23;20016;-73
2022/04/03 07:34:58;;;;;;;5.72;3.42;;;;;;;0.56;75.44;101467.63;6181446;23;20031;-72
2022/04/03 07:37:44;;;;;;;9.65;4.32;;;;;;;0.71;76.18;101476.63;6209267;23;20001;-73
2022/04/03 07:40:13;;;;;;;6.20;4.25;;;;;;;0.87;75.86;101490.00;6161512;23;20087;-73
2022/04/03 07:42:39;;;;;;;7.00;4.90;;;;;;;1.06;75.82;101506.78;6182955;23;20015;-73
2022/04/03 07:45:08;;;;;;;7.43;4.65;;;;;;;1.09;76.41;101509.09;6211794;23;20015;-73
2022/04/03 07:47:34;;;;;;;7.75;4.20;;;;;;;1.20;75.83;101505.19;6209996;23;20043;-73
2022/04/03 07:50:03;;;;;;;4.85;4.03;;;;;;;1.31;75.94;101503.94;6218483;23;20008;-74
2022/04/03 07:52:29;;;;;;;11.68;4.75;;;;;;;1.47;75.21;101511.06;6215379;23;20479;-73
2022/04/03 07:54:57;;;;;;;7.10;4.53;;;;;;;1.61;74.58;101509.44;6226579;23;20019;-73
2022/04/03 07:57:24;;;;;;;9.93;3.97;;;;;;;1.80;74.53;101511.66;6228674;23;20015;-74
2022/04/03 07:59:49;;;;;;;9.27;3.83;;;;;;;2.03;73.54;101519.72;6178547;23;20052;-74
2022/04/03 08:02:15;;;;;;;9.05;4.28;;;;;;;2.09;73.42;101513.59;6229250;23;20011;-73
2022/04/03 08:04:40;;;;;;;5.25;3.65;;;;;;;2.27;73.03;101523.22;6164632;23;20363;-75
2022/04/03 08:07:05;;;;;;;10.00;4.13;;;;;;;2.41;73.22;101518.84;6160280;23;20075;-74
2022/04/03 08:09:31;;;;;;;8.98;3.80;;;;;;;2.48;72.52;101516.25;6182043;23;20091;-74
2022/04/03 08:11:56;;;;;;;5.63;2.95;;;;;;;2.73;72.04;101519.50;6183579;23;20008;-74
2022/04/03 08:14:22;;;;;;;5.43;3.47;;;;;;;2.92;72.05;101515.38;6182833;23;20396;-74
2022/04/03 08:16:47;;;;;;;4.15;3.00;;;;;;;3.23;71.52;101517.03;6179709;23;20336;-73
2022/04/03 08:19:13;;;;;;;4.85;2.40;;;;;;;3.55;70.55;101518.41;6207021;23;20012;-74
2022/04/03 08:21:39;;;;;;;4.35;2.67;;;;;;;3.82;69.79;101514.06;6206674;23;20032;-74
2022/04/03 08:24:07;;;;;;;5.47;2.88;;;;;;;4.06;69.33;101513.84;6177102;23;20020;-73
2022/04/03 08:26:42;;;;;;;6.65;3.30;;;;;;;4.18;68.01;101506.88;6207717;23;20036;-74
2022/04/03 08:29:07;;;;;;;4.95;3.05;;;;;;;4.34;68.13;101498.44;6179052;23;20576;-73
2022/04/03 08:31:35;;;;;;;3.72;2.47;;;;;;;4.64;68.33;101492.75;6182325;23;20074;-74
2022/04/03 08:34:03;;;;;;;6.78;2.72;;;;;;;4.99;67.41;101498.13;6183427;23;20019;-74
2022/04/03 08:36:28;;;;;;;4.25;2.17;;;;;;;5.51;66.62;101511.25;6207498;23;20054;-72
2022/04/03 08:38:57;;;;;;;2.42;1.70;;;;;;;5.88;65.76;101495.41;6176612;23;20008;-73
2022/04/03 08:41:22;;;;;;;7.80;1.83;;;;;;;6.26;64.97;101508.38;6199821;23;20008;-73
2022/04/03 08:43:48;;;;;;;6.35;2.80;;;;;;;6.54;63.87;101515.44;6176961;23;20004;-74
2022/04/03 08:46:14;;;;;;;3.20;2.30;;;;;;;6.81;63.67;101519.75;6208680;23;20039;-72
2022/04/03 08:52:13;;;;;;;4.80;1.20;;;;;;;15.47;49.44;101510.53;6123739;23;20020;-77
2022/04/03 08:54:45;;;;;;;1.85;1.40;;;;;;;20.15;37.75;101511.78;6187279;23;20009;-78
2022/04/03 09:00:46;;;;;;;2.38;1.23;;;;;;;27.40;24.54;101534.31;6197652;23;20074;-76
2022/04/03 09:03:30;;;;;;;1.23;0.77;;;;;;;29.09;22.38;101510.72;6186538;23;20012;-76
2022/04/03 09:06:21;;;;;;;1.80;0.90;;;;;;;31.26;20.32;101538.19;6191663;23;20015;-77
2022/04/03 09:09:23;;;;;;;0.80;0.70;;;;;;;32.15;19.29;101515.06;6180374;23;20008;-75
2022/04/03 09:12:16;;;;;;;3.35;0.80;;;;;;;32.15;18.58;101504.56;6203933;23;20016;-78
2022/04/03 09:15:15;;;;;;;0.93;0.47;;;;;;;33.53;16.83;101537.56;6186081;23;20004;-76
2022/04/03 09:17:45;;;;;;;0.90;0.85;;;;;;;34.23;14.75;101521.16;6201961;23;20087;-77
2022/04/03 09:21:04;;;;;;;;;;;;;;;;;;;;;
2022/04/03 09:23:39;;;;;;;;;;;;;;;;;;;;;
2022/04/03 09:26:30;;;;;;;2.40;0.82;;;;;;;34.95;13.88;101520.38;6211575;23;20099;-75
2022/04/03 09:29:09;;;;;;;1.58;0.70;;;;;;;35.24;14.08;101498.38;6182681;23;20086;-78
2022/04/03 09:31:34;;;;;;;1.27;0.50;;;;;;;35.80;13.83;101507.09;6209209;23;20001;-75
2022/04/03 09:34:05;;;;;;;2.08;0.98;;;;;;;35.30;11.84;101496.75;6187174;23;20127;-86
2022/04/03 09:36:35;;;;;;;3.80;1.83;;;;;;;34.94;12.88;101519.59;6186041;23;20015;-74
2022/04/03 09:39:16;;;;;;;;;;;;;;;;;;;;;
2022/04/03 09:41:59;;;;;;;4.00;0.80;;;;;;;36.26;12.54;101516.56;6209916;23;20734;-75
2022/04/03 09:44:39;;;;;;;2.92;1.10;;;;;;;36.65;11.75;101515.47;6211343;23;20414;-74
2022/04/03 09:47:19;;;;;;;1.95;0.65;;;;;;;36.61;12.21;101503.28;6213234;23;20035;-75
2022/04/03 09:49:53;;;;;;;0.40;0.40;;;;;;;37.56;12.24;101509.63;6211501;23;20059;-76
2022/04/03 09:52:51;;;;;;;3.22;1.20;;;;;;;36.85;10.41;101506.34;6179403;23;20019;-74
2022/04/03 09:55:21;;;;;;;2.33;1.15;;;;;;;33.55;13.31;101503.94;6182281;23;20004;-75
2022/04/03 09:57:49;;;;;;;2.50;1.10;;;;;;;33.91;13.02;101504.09;6210180;23;20028;-75
2022/04/03 10:00:29;;;;;;;2.55;1.20;;;;;;;34.32;12.41;101506.59;6185233;23;20005;-76
2022/04/03 10:03:00;;;;;;;1.17;0.75;;;;;;;33.66;12.97;101490.63;6182631;23;20038;-75
2022/04/03 10:05:29;;;;;;;3.65;0.90;;;;;;;36.75;11.59;101501.53;6160613;23;20037;-75
2022/04/03 10:07:59;;;;;;;2.45;1.10;;;;;;;38.58;10.32;101495.41;6189314;23;20008;-76
2022/04/03 10:10:25;;;;;;;0.77;0.40;;;;;;;35.72;11.25;101477.06;6194631;23;20087;-75
2022/04/03 10:12:51;;;;;;;1.40;0.90;;;;;;;31.62;12.87;101499.13;6216557;23;20008;-75
2022/04/03 10:15:17;;;;;;;2.53;0.98;;;;;;;28.97;15.38;101475.06;6214809;23;20080;-76
2022/04/03 10:17:42;;;;;;;2.50;0.80;;;;;;;31.99;13.58;101484.16;6219542;23;20025;-75
2022/04/03 10:20:09;;;;;;;0.90;0.60;;;;;;;35.01;12.45;101478.16;6189408;23;20008;-75
2022/04/03 10:22:38;;;;;;;2.63;1.20;;;;;;;35.00;10.96;101488.69;6190164;23;20103;-75
2022/04/03 10:25:11;;;;;;;1.45;0.65;;;;;;;32.67;12.08;101484.81;6213954;23;20416;-75
2022/04/03 10:27:39;;;;;;;1.33;0.70;;;;;;;28.67;14.23;101469.94;6187108;23;20039;-76
2022/04/03 10:30:06;;;;;;;1.77;0.75;;;;;;;25.49;16.67;101466.94;6218457;23;20004;-75
2022/04/03 10:32:34;;;;;;;1.73;0.80;;;;;;;26.20;17.46;101467.06;6167651;23;20036;-75
2022/04/03 10:35:11;;;;;;;0.95;0.68;;;;;;;26.60;16.07;101460.78;6187761;23;20008;-76
2022/04/03 10:37:40;;;;;;;2.78;0.88;;;;;;;24.55;17.23;101463.22;6182799;23;20004;-75
2022/04/03 10:40:10;;;;;;;1.95;0.90;;;;;;;22.60;19.15;101469.53;6185498;23;20000;-75
2022/04/03 10:43:06;;;;;;;2.15;1.13;;;;;;;21.62;19.54;101460.94;6215060;23;20011;-76
2022/04/03 10:45:58;;;;;;;4.15;0.90;;;;;;;21.53;20.09;101454.50;6192230;23;20032;-75
2022/04/03 10:48:26;;;;;;;1.05;0.70;;;;;;;21.92;20.54;101455.75;6185601;23;20019;-75
2022/04/03 10:50:55;;;;;;;1.25;0.90;;;;;;;25.87;17.98;101463.09;6185484;23;20404;-75
2022/04/03 10:53:26;;;;;;;1.45;0.77;;;;;;;31.60;13.98;101462.75;6215138;23;20012;-75
2022/04/03 10:55:58;;;;;;;6.10;0.95;;;;;;;35.62;11.33;101467.38;6209816;23;20035;-76
2022/04/03 10:58:24;;;;;;;1.58;0.95;;;;;;;38.24;9.63;101465.84;6188860;23;20009;-75
2022/04/03 11:00:51;;;;;;;1.77;0.85;;;;;;;40.42;8.60;101469.41;6182195;23;20091;-75
2022/04/03 11:03:17;;;;;;;2.05;0.68;;;;;;;41.39;7.18;101465.94;6184256;23;20316;-75
2022/04/03 11:05:46;;;;;;;1.98;0.90;;;;;;;37.98;7.34;101456.03;6183328;23;20005;-76
2022/04/03 11:08:11;;;;;;;1.55;0.45;;;;;;;38.21;8.39;101458.09;6184690;23;20135;-78
2022/04/03 11:10:49;;;;;;;1.17;0.60;;;;;;;40.54;7.53;101450.72;6212470;23;20024;-75
2022/04/03 11:13:16;;;;;;;0.80;0.50;;;;;;;38.60;8.24;101444.38;6183442;23;20004;-76
2022/04/03 11:16:02;;;;;;;2.05;0.63;;;;;;;39.47;8.33;101449.16;6185453;23;20617;-75
2022/04/03 11:18:45;;;;;;;0.60;0.60;;;;;;;38.12;8.24;101448.47;6185466;23;20027;-75
2022/04/03 11:21:12;;;;;;;0.90;0.70;;;;;;;35.13;9.91;101423.72;6209856;23;20011;-75
2022/04/03 11:23:47;;;;;;;1.38;0.73;;;;;;;34.75;8.78;101431.91;6211245;23;20001;-75
2022/04/03 11:26:13;;;;;;;1.40;0.85;;;;;;;33.75;9.42;101427.88;6212876;23;20039;-75
2022/04/03 11:28:39;;;;;;;1.80;0.90;;;;;;;29.46;11.63;101410.94;6187400;23;20004;-75
2022/04/03 11:31:08;;;;;;;1.17;0.57;;;;;;;27.73;13.12;101404.00;6187575;23;20004;-74
2022/04/03 11:33:34;;;;;;;2.97;0.90;;;;;;;26.19;13.31;101406.56;6185918;23;20005;-75
2022/04/03 11:36:03;;;;;;;0.50;0.50;;;;;;;27.39;13.99;101409.09;6186286;23;20317;-74
2022/04/03 11:38:39;;;;;;;2.03;0.73;;;;;;;33.16;11.12;101403.38;6185747;23;20022;-76
2022/04/03 11:41:37;;;;;;;1.13;0.60;;;;;;;38.12;9.25;101411.34;6211323;23;20005;-75
2022/04/03 11:44:02;;;;;;;1.60;0.47;;;;;;;42.60;7.07;101421.34;6161084;23;20466;-76
2022/04/03 11:46:34;;;;;;;3.15;0.60;;;;;;;44.83;5.71;101426.69;6183962;23;20087;-74
2022/04/03 11:49:25;;;;;;;1.45;1.00;;;;;;;45.94;3.95;101411.91;6185637;23;20442;-76
2022/04/03 11:51:57;;;;;;;1.63;0.88;;;;;;;45.14;4.62;101391.06;6186659;23;20008;-76
2022/04/03 11:54:25;;;;;;;5.40;1.17;;;;;;;42.50;4.74;101408.97;6211854;23;20055;-75
2022/04/03 11:57:06;;;;;;;1.48;1.15;;;;;;;35.38;7.42;101383.00;6211687;23;20012;-75
2022/04/03 11:59:38;;;;;;;1.50;0.73;;;;;;;30.40;9.87;101386.03;6212240;23;20325;-76
2022/04/03 12:02:15;;;;;;;0.93;0.82;;;;;;;27.21;11.92;101358.84;6187288;23;20020;-75
2022/04/03 12:04:43;;;;;;;1.75;1.00;;;;;;;24.58;13.68;101345.13;6184164;23;20000;-74
2022/04/03 12:07:13;;;;;;;0.60;0.60;;;;;;;22.49;15.06;101341.63;6186141;23;20000;-75
2022/04/03 12:09:41;;;;;;;0.93;0.65;;;;;;;23.39;15.27;101356.09;6213503;23;20005;-76
2022/04/03 12:12:08;;;;;;;0.90;0.80;;;;;;;30.64;11.82;101367.06;6212302;23;20005;-74
2022/04/03 12:14:37;;;;;;;1.27;0.60;;;;;;;36.56;8.73;101367.00;6187074;23;20031;-74
2022/04/03 12:17:12;;;;;;;0.50;0.50;;;;;;;40.62;6.77;101379.66;6212521;23;20063;-74
2022/04/03 12:19:50;;;;;;;1.05;0.50;;;;;;;43.92;5.37;101386.59;6212284;23;20005;-76
2022/04/03 12:22:18;;;;;;;1.55;0.55;;;;;;;46.11;4.53;101377.56;6183135;23;20758;-77
2022/04/03 12:24:45;;;;;;;0.35;0.35;;;;;;;47.31;3.68;101390.03;6186058;23;20011;-76
2022/04/03 12:27:16;;;;;;;0.43;0.43;;;;;;;47.85;3.23;101386.13;6185871;23;20005;-77
2022/04/03 12:29:46;;;;;;;2.35;0.60;;;;;;;42.93;4.01;101377.81;6211562;23;20054;-75
2022/04/03 12:32:15;;;;;;;0.32;0.30;;;;;;;36.39;6.74;101362.31;6211497;23;20331;-76
2022/04/03 12:34:43;;;;;;;1.35;0.88;;;;;;;36.18;6.55;101341.34;6215130;23;20005;-76
2022/04/03 12:37:10;;;;;;;0.47;0.47;;;;;;;37.34;6.64;101349.38;6187646;23;20000;-75